Alvear, Argentina
Current Conditions -  °F | °C
As of 1:00 PM on Tuesday 27 Jan 2015 (Local Time) from SARL Reporting Station
Thunderstorm Thunderstorm  
Wind Chill: 86°   Ceiling: Unl
Heat Index: 90°   Visibility: 6mi
Dew Point: 70°   Wind: 21mph
Humidity: 58%   Direction: 340°NNW
Pressure: 29.8"   Gusts: NA
Location:  29.1°S, 56.55°W
Report Text: SARL 271600Z 34018KT 9999 TS SCT025TCUFEW045CB SCT200 30/21 Q1009
Loading
Personal Weather Stations






























Interactive Weather Map New forecast layout! Learn more

10-Day Weather Forecast

Advertisements
Track Severe Weather on mobile